Time;durP1;ratioP1;P1;durP2;ratioP2;P2;SDS_P1;SDS_P2;PMS_P1;PMS_P2;Temp;Humidity;BMP_temperature;BMP_pressure;BME280_temperature;BME280_humidity;BME280_pressure;Samples;Min_cycle;Max_cycle;Signal;HPM_P1;HPM_P2
2021/07/19 00:00:35;;;;;;;11.63;10.43;;;;;;;23.70;74.43;94098.59;4908139;29;20489;-88
2021/07/19 00:03:05;;;;;;;14.03;10.93;;;;;;;23.70;74.68;94101.28;4907121;29;20536;-89
2021/07/19 00:05:32;;;;;;;15.27;9.93;;;;;;;23.68;74.88;94103.38;4906933;29;20479;-90
2021/07/19 00:08:02;;;;;;;13.83;10.23;;;;;;;23.62;75.26;94098.94;4906071;29;20556;-90
2021/07/19 00:10:29;;;;;;;12.77;11.43;;;;;;;23.46;76.08;94103.88;4905485;29;20513;-89
2021/07/19 00:12:56;;;;;;;14.73;11.37;;;;;;;23.46;76.30;94098.53;4907854;29;20469;-89
2021/07/19 00:15:25;;;;;;;13.70;11.20;;;;;;;23.32;76.91;94107.78;4906776;29;20525;-89
2021/07/19 00:17:53;;;;;;;11.70;10.50;;;;;;;23.17;77.56;94108.22;4906947;29;20464;-89
2021/07/19 00:20:24;;;;;;;15.30;11.30;;;;;;;23.17;77.80;94100.19;4907383;29;20941;-88
2021/07/19 00:22:54;;;;;;;11.23;10.23;;;;;;;23.12;78.40;94105.38;4906412;29;20532;-87
2021/07/19 00:25:24;;;;;;;14.63;11.70;;;;;;;23.13;78.67;94100.84;4906035;29;20967;-90
2021/07/19 00:27:55;;;;;;;12.97;11.77;;;;;;;23.16;78.19;94103.09;4907534;29;20463;-89
2021/07/19 00:30:25;;;;;;;12.07;10.87;;;;;;;23.20;78.63;94098.09;4907002;29;20516;-89
2021/07/19 00:32:53;;;;;;;12.53;11.43;;;;;;;23.19;78.50;94097.28;4906851;29;20522;-90
2021/07/19 00:35:28;;;;;;;13.47;12.07;;;;;;;23.16;78.74;94103.09;4907163;29;20478;-90
2021/07/19 00:37:55;;;;;;;13.47;11.40;;;;;;;23.15;78.79;94101.44;4906805;29;20491;-90
2021/07/19 00:40:25;;;;;;;14.00;11.80;;;;;;;23.16;78.78;94117.28;4907893;29;20522;-89
2021/07/19 00:42:53;;;;;;;12.10;10.90;;;;;;;23.20;78.52;94114.97;4907106;29;20546;-88
2021/07/19 00:45:24;;;;;;;14.70;11.77;;;;;;;23.25;78.62;94107.06;4906622;29;20480;-90
2021/07/19 00:47:53;;;;;;;14.93;10.90;;;;;;;23.31;78.33;94116.88;4906090;29;20480;-90
2021/07/19 00:50:23;;;;;;;12.73;11.40;;;;;;;23.26;77.89;94114.06;4905955;29;20515;-90
2021/07/19 00:52:57;;;;;;;12.67;11.00;;;;;;;23.19;78.20;94099.94;4906429;29;20481;-88
2021/07/19 00:55:30;;;;;;;13.23;11.50;;;;;;;23.17;78.56;94110.06;4906931;29;20465;-90
2021/07/19 00:57:58;;;;;;;11.83;10.60;;;;;;;23.16;78.67;94106.56;4907006;29;20473;-88
2021/07/19 01:00:28;;;;;;;11.67;10.57;;;;;;;23.16;78.28;94095.06;4906224;29;20458;-90
2021/07/19 01:02:58;;;;;;;12.70;11.47;;;;;;;23.16;78.36;94095.06;4905971;29;20456;-89
2021/07/19 01:05:28;;;;;;;12.43;11.13;;;;;;;23.12;78.54;94096.53;4904744;29;20992;-89
2021/07/19 01:10:40;;;;;;;13.43;12.10;;;;;;;22.84;79.77;94103.28;4903600;29;20580;-85
2021/07/19 01:13:08;;;;;;;14.20;12.37;;;;;;;22.76;80.58;94095.50;4905448;29;20518;-89
2021/07/19 01:15:40;;;;;;;16.70;13.10;;;;;;;22.73;81.23;94103.97;4905206;29;20487;-89
2021/07/19 01:18:10;;;;;;;14.33;12.87;;;;;;;22.71;81.07;94110.59;4905401;29;20971;-90
2021/07/19 01:20:52;;;;;;;15.37;13.50;;;;;;;22.63;81.88;94114.41;4906220;29;20444;-90
2021/07/19 01:23:38;;;;;;;17.50;13.20;;;;;;;22.53;82.31;94127.44;4905554;29;20491;-90
2021/07/19 01:26:39;;;;;;;14.00;12.67;;;;;;;22.21;84.17;94121.41;4905302;29;20560;-91
2021/07/19 01:29:11;;;;;;;15.13;12.67;;;;;;;22.12;84.61;94122.72;4846836;29;20969;-89
2021/07/19 01:31:44;;;;;;;13.90;12.47;;;;;;;22.02;85.00;94122.38;4846854;29;20492;-88
2021/07/19 01:34:16;;;;;;;15.30;13.70;;;;;;;22.02;85.61;94109.84;4848642;29;21069;-88
2021/07/19 01:36:49;;;;;;;17.93;14.27;;;;;;;21.97;85.80;94112.34;4844579;29;20534;-90
2021/07/19 01:39:19;;;;;;;15.33;13.83;;;;;;;21.70;87.72;94111.75;4847250;29;20501;-89
2021/07/19 01:41:48;;;;;;;14.37;12.87;;;;;;;21.76;87.52;94118.06;4845318;29;20552;-90
2021/07/19 01:44:19;;;;;;;16.00;13.57;;;;;;;21.69;87.82;94115.47;4845878;29;20522;-89
2021/07/19 01:46:49;;;;;;;14.87;12.77;;;;;;;21.41;89.71;94118.53;4845051;29;20572;-90
2021/07/19 01:49:17;;;;;;;20.27;14.33;;;;;;;21.56;89.13;94115.53;4844375;29;20930;-90
2021/07/19 01:51:45;;;;;;;14.33;12.83;;;;;;;21.64;88.67;94121.44;4844311;29;20490;-88
2021/07/19 01:54:15;;;;;;;16.97;13.40;;;;;;;21.79;88.01;94129.13;4844992;29;20953;-90
2021/07/19 01:56:43;;;;;;;19.30;14.67;;;;;;;21.90;87.29;94115.06;4846196;29;20465;-89
2021/07/19 01:59:11;;;;;;;15.70;14.20;;;;;;;21.94;86.77;94120.78;4848418;29;20477;-89
2021/07/19 02:01:41;;;;;;;15.23;13.77;;;;;;;21.79;87.41;94128.31;4847516;29;20481;-90
2021/07/19 02:04:10;;;;;;;14.87;13.47;;;;;;;21.84;87.58;94123.97;4847836;29;21465;-89
2021/07/19 02:06:38;;;;;;;15.87;13.77;;;;;;;21.94;87.42;94116.25;4893344;29;20518;-88
2021/07/19 02:09:08;;;;;;;16.13;12.70;;;;;;;22.01;86.96;94118.09;4905729;29;20458;-90
2021/07/19 02:11:39;;;;;;;14.60;13.00;;;;;;;22.04;86.38;94120.34;4906357;29;20525;-88
2021/07/19 02:14:08;;;;;;;21.77;13.57;;;;;;;22.10;86.10;94120.28;4905380;29;20478;-89
2021/07/19 02:16:42;;;;;;;14.10;12.57;;;;;;;22.11;85.37;94121.91;4906156;29;20466;-89
2021/07/19 02:19:11;;;;;;;18.20;15.03;;;;;;;22.09;86.00;94118.66;4909330;29;20497;-87
2021/07/19 02:21:42;;;;;;;20.37;15.00;;;;;;;22.13;85.82;94125.19;4908599;29;20478;-90
2021/07/19 02:24:10;;;;;;;15.50;13.03;;;;;;;22.12;85.62;94123.53;4909353;29;20479;-90
2021/07/19 02:26:39;;;;;;;15.80;14.07;;;;;;;22.07;85.90;94126.06;4910102;29;20490;-90
2021/07/19 02:31:56;;;;;;;17.80;14.17;;;;;;;21.98;86.72;94126.53;4906938;29;20498;-89
2021/07/19 02:34:25;;;;;;;17.70;14.20;;;;;;;21.90;86.60;94122.25;4908865;29;20470;-90
2021/07/19 02:36:53;;;;;;;14.90;13.40;;;;;;;21.79;87.53;94139.00;4908952;29;20564;-90
2021/07/19 02:39:23;;;;;;;17.00;15.20;;;;;;;21.79;87.80;94131.81;4908826;29;20489;-91
2021/07/19 02:41:51;;;;;;;16.20;13.87;;;;;;;21.81;87.80;94135.09;4909164;29;20540;-89
2021/07/19 02:44:20;;;;;;;21.33;15.20;;;;;;;21.83;87.63;94132.19;4909203;29;20457;-88
2021/07/19 02:46:50;;;;;;;20.33;15.90;;;;;;;21.79;87.59;94131.81;4908160;29;20544;-87
2021/07/19 02:49:18;;;;;;;15.13;13.63;;;;;;;21.71;87.96;94136.59;4908907;29;20462;-88
2021/07/19 02:51:50;;;;;;;14.70;13.30;;;;;;;21.72;87.79;94135.56;4908707;29;20572;-89
2021/07/19 02:54:20;;;;;;;19.50;14.77;;;;;;;21.72;87.53;94143.59;4909061;29;20483;-89
2021/07/19 02:56:47;;;;;;;17.03;14.70;;;;;;;21.65;87.51;94144.44;4910345;29;20467;-90
2021/07/19 02:59:16;;;;;;;15.60;13.57;;;;;;;21.64;87.79;94142.78;4908922;29;20504;-90
2021/07/19 03:01:44;;;;;;;15.70;13.87;;;;;;;21.59;87.97;94142.63;4909360;29;20487;-88
2021/07/19 03:04:22;;;;;;;17.00;14.90;;;;;;;21.60;88.26;94144.25;4909696;29;20570;-89
2021/07/19 03:06:52;;;;;;;17.30;14.63;;;;;;;21.59;87.73;94155.97;4909037;29;20497;-89
2021/07/19 03:09:23;;;;;;;18.70;15.40;;;;;;;21.61;87.97;94145.91;4908959;29;20467;-90
2021/07/19 03:11:53;;;;;;;15.87;14.07;;;;;;;21.65;87.38;94155.09;4909287;29;20489;-89
2021/07/19 03:14:24;;;;;;;15.53;14.00;;;;;;;21.59;87.66;94150.63;4909491;29;20521;-89
2021/07/19 03:16:55;;;;;;;15.30;13.97;;;;;;;21.61;87.88;94159.25;4909920;29;20482;-90
2021/07/19 03:19:25;;;;;;;21.40;14.80;;;;;;;21.63;87.28;94154.50;4910240;29;20454;-90
2021/07/19 03:21:57;;;;;;;15.90;14.40;;;;;;;21.69;87.88;94154.69;4909145;29;20489;-89
2021/07/19 03:24:27;;;;;;;19.17;13.93;;;;;;;21.76;87.24;94155.47;4908376;29;20482;-88
2021/07/19 03:26:55;;;;;;;20.40;15.30;;;;;;;21.73;87.05;94150.56;4908758;29;20486;-90
2021/07/19 03:29:24;;;;;;;24.83;14.60;;;;;;;21.77;87.06;94154.44;4908493;29;20483;-90
2021/07/19 03:31:55;;;;;;;22.97;17.03;;;;;;;21.86;86.91;94169.16;4908926;29;20518;-90
2021/07/19 03:34:24;;;;;;;17.63;15.43;;;;;;;21.81;86.97;94159.13;4909384;29;20486;-90
2021/07/19 03:36:54;;;;;;;21.30;14.20;;;;;;;21.78;86.75;94158.75;4909533;29;20585;-90
2021/07/19 03:39:24;;;;;;;16.37;14.67;;;;;;;21.78;86.12;94162.22;4908597;29;20454;-88
2021/07/19 03:41:54;;;;;;;19.60;14.33;;;;;;;21.81;85.85;94168.97;4909905;29;20505;-89
2021/07/19 03:49:49;;;;;;;15.70;14.07;;;;;;;21.87;86.12;94179.63;4908427;29;21021;-90
2021/07/19 03:52:19;;;;;;;18.03;14.53;;;;;;;21.94;85.61;94184.91;4908770;29;20481;-91
2021/07/19 03:54:48;;;;;;;19.23;14.87;;;;;;;22.19;84.92;94183.09;4909680;29;20493;-90
2021/07/19 03:57:19;;;;;;;21.17;16.00;;;;;;;22.40;83.61;94186.41;4908855;29;20485;-89
2021/07/19 03:59:48;;;;;;;16.63;15.03;;;;;;;22.71;82.06;94185.50;4908541;29;20499;-90
2021/07/19 04:02:16;;;;;;;14.73;13.43;;;;;;;22.93;81.29;94185.91;4908910;29;20452;-89
2021/07/19 04:04:54;;;;;;;19.80;15.13;;;;;;;23.22;79.93;94190.50;4907797;29;20486;-90
2021/07/19 04:07:23;;;;;;;18.50;13.03;;;;;;;23.54;77.51;94185.75;4907067;29;20521;-85
2021/07/19 04:09:50;;;;;;;19.40;14.33;;;;;;;23.82;75.87;94189.75;4908219;29;20486;-90
2021/07/19 04:12:20;;;;;;;16.60;14.77;;;;;;;24.13;74.60;94188.66;4907833;29;20517;-90
2021/07/19 04:14:48;;;;;;;18.50;13.00;;;;;;;24.33;72.70;94194.53;4908085;29;20449;-91
2021/07/19 04:17:20;;;;;;;20.97;13.40;;;;;;;24.51;72.88;94194.41;4906690;29;20488;-90
2021/07/19 04:19:49;;;;;;;17.90;13.70;;;;;;;24.70;71.56;94200.50;4907568;29;20457;-88
2021/07/19 04:22:17;;;;;;;19.93;13.77;;;;;;;24.90;70.98;94200.16;4902641;29;20530;-88
2021/07/19 04:24:53;;;;;;;20.60;13.93;;;;;;;25.04;69.90;94203.41;4907027;29;20487;-91
2021/07/19 04:27:24;;;;;;;19.13;13.80;;;;;;;25.19;68.60;94199.19;4906621;29;20542;-89
2021/07/19 04:29:52;;;;;;;17.73;15.27;;;;;;;25.18;68.07;94194.88;4905576;29;20548;-91
2021/07/19 04:32:20;;;;;;;15.40;13.00;;;;;;;25.33;68.60;94205.09;4906972;29;20523;-91
2021/07/19 04:34:51;;;;;;;18.03;13.90;;;;;;;25.48;67.49;94196.56;4908105;29;20513;-90
2021/07/19 04:37:18;;;;;;;14.63;13.07;;;;;;;25.57;66.66;94198.59;4907774;29;20455;-89
2021/07/19 04:39:49;;;;;;;23.33;13.90;;;;;;;25.73;66.30;94199.72;4907552;29;20532;-90
2021/07/19 04:42:17;;;;;;;17.10;14.90;;;;;;;25.90;65.75;94189.84;4906849;29;20555;-87
2021/07/19 04:44:44;;;;;;;20.90;13.50;;;;;;;26.14;64.82;94197.78;4905693;29;20596;-86
2021/07/19 04:47:13;;;;;;;15.83;14.00;;;;;;;26.42;63.90;94208.50;4905145;29;20873;-92
2021/07/19 04:49:41;;;;;;;15.00;13.57;;;;;;;26.70;62.61;94209.47;4905915;29;20483;-87
2021/07/19 04:52:10;;;;;;;15.83;14.10;;;;;;;26.95;62.38;94212.56;4902303;29;20589;-87
2021/07/19 04:54:39;;;;;;;13.83;12.50;;;;;;;27.19;62.31;94215.88;4902256;29;20445;-85
2021/07/19 04:57:09;;;;;;;19.57;12.90;;;;;;;27.47;62.32;94217.59;4902466;29;20456;-89
2021/07/19 04:59:40;;;;;;;16.23;12.40;;;;;;;27.64;60.30;94210.25;4904308;29;20552;-86
2021/07/19 05:02:14;;;;;;;14.80;12.77;;;;;;;27.72;59.20;94215.19;4904381;29;20494;-82
2021/07/19 05:04:43;;;;;;;13.40;12.27;;;;;;;27.80;59.38;94213.13;4899849;29;20568;-82
2021/07/19 05:07:14;;;;;;;16.50;15.00;;;;;;;27.43;60.35;94211.84;4851886;29;20452;-82
2021/07/19 05:09:43;;;;;;;18.43;13.87;;;;;;;27.31;60.08;94213.88;4899435;29;21030;-83
2021/07/19 05:12:12;;;;;;;25.10;14.03;;;;;;;27.42;60.41;94212.13;4899109;29;20585;-80
2021/07/19 05:14:40;;;;;;;17.23;13.80;;;;;;;27.46;60.77;94207.84;4899603;29;20448;-83
2021/07/19 05:17:10;;;;;;;20.03;13.10;;;;;;;27.68;61.24;94214.06;4899062;29;20441;-81
2021/07/19 05:19:38;;;;;;;20.17;14.13;;;;;;;27.97;58.43;94213.84;4899234;29;20452;-84
2021/07/19 05:22:09;;;;;;;17.57;12.83;;;;;;;28.01;60.10;94215.78;4898654;29;20936;-85
2021/07/19 05:24:38;;;;;;;14.07;12.67;;;;;;;28.25;58.19;94221.72;4898825;29;21000;-82
2021/07/19 05:27:06;;;;;;;13.27;11.97;;;;;;;28.11;57.19;94215.09;4899094;29;20524;-82
2021/07/19 05:29:34;;;;;;;13.93;11.80;;;;;;;28.13;57.55;94212.13;4899012;29;20437;-83
2021/07/19 05:32:01;;;;;;;15.23;11.60;;;;;;;28.45;57.05;94220.28;4899217;29;20510;-80
2021/07/19 05:34:28;;;;;;;19.90;11.53;;;;;;;28.66;55.91;94213.97;4899024;29;20529;-81
2021/07/19 05:36:56;;;;;;;17.77;12.27;;;;;;;28.52;56.02;94210.06;4898238;29;20548;-81
2021/07/19 05:39:26;;;;;;;35.93;15.67;;;;;;;28.50;57.06;94206.81;4882824;29;20525;-80
2021/07/19 05:41:57;;;;;;;14.17;11.23;;;;;;;28.50;56.86;94215.72;4884094;29;21034;-81
2021/07/19 05:44:23;;;;;;;12.80;11.50;;;;;;;28.64;55.57;94202.63;4898267;29;20545;-79
2021/07/19 05:46:50;;;;;;;14.97;12.20;;;;;;;28.77;55.34;94214.84;4896888;29;20532;-80
2021/07/19 05:49:18;;;;;;;13.20;11.03;;;;;;;28.72;54.88;94218.34;4887141;29;20540;-81
2021/07/19 05:51:45;;;;;;;14.37;11.37;;;;;;;28.50;55.31;94221.13;4881971;29;20978;-80
2021/07/19 05:57:35;;;;;;;15.73;11.90;;;;;;;29.09;53.60;94225.63;4884191;29;20429;-79
2021/07/19 06:00:04;;;;;;;19.43;12.00;;;;;;;29.11;54.00;94218.06;4887471;29;20444;-80
2021/07/19 06:02:31;;;;;;;13.37;10.93;;;;;;;29.13;53.62;94219.44;4901260;29;20448;-80
2021/07/19 06:04:58;;;;;;;13.47;12.07;;;;;;;29.07;54.32;94234.00;4893196;29;20485;-80
2021/07/19 06:07:25;;;;;;;12.47;11.37;;;;;;;28.99;54.27;94232.59;4891943;29;20541;-80
2021/07/19 06:09:52;;;;;;;15.80;11.13;;;;;;;28.62;54.78;94232.59;4892516;29;20484;-81
2021/07/19 06:12:18;;;;;;;13.37;11.83;;;;;;;28.80;54.95;94223.25;4891590;29;20481;-81
2021/07/19 06:14:47;;;;;;;14.23;12.43;;;;;;;28.92;54.65;94226.63;4886053;29;20872;-82
2021/07/19 06:17:14;;;;;;;17.43;12.20;;;;;;;28.90;55.31;94233.34;4895135;29;20441;-82
2021/07/19 06:19:41;;;;;;;16.33;11.20;;;;;;;28.97;54.37;94226.66;4890682;29;20461;-83
2021/07/19 06:22:10;;;;;;;14.73;12.00;;;;;;;29.24;54.36;94234.66;4890217;29;20453;-82
2021/07/19 06:24:37;;;;;;;17.20;12.23;;;;;;;29.39;53.80;94242.03;4900837;29;20457;-82
2021/07/19 06:27:04;;;;;;;15.67;11.77;;;;;;;29.50;53.70;94232.13;4899789;29;20529;-81
2021/07/19 06:43:00;;;;;;;13.23;11.93;;;;;;;29.55;53.54;94229.44;4899982;29;20444;-87
2021/07/19 06:45:27;;;;;;;14.43;13.03;;;;;;;29.40;55.11;94222.03;4901785;29;20457;-86
2021/07/19 06:47:54;;;;;;;14.10;12.80;;;;;;;29.50;54.45;94221.31;4891952;29;20434;-86
2021/07/19 06:50:21;;;;;;;15.03;12.07;;;;;;;29.24;55.12;94221.16;4883560;29;20537;-84
2021/07/19 06:52:48;;;;;;;15.40;12.90;;;;;;;29.25;55.87;94213.84;4883098;29;20937;-86
2021/07/19 06:55:15;;;;;;;14.17;12.80;;;;;;;29.54;54.70;94212.41;4886566;29;20532;-85
2021/07/19 06:57:42;;;;;;;15.70;12.67;;;;;;;29.59;54.63;94209.72;4887851;29;20449;-79
2021/07/19 07:00:12;;;;;;;18.67;11.70;;;;;;;29.49;54.59;94212.38;4896918;29;20524;-80
2021/07/19 07:02:39;;;;;;;18.47;12.33;;;;;;;29.69;55.94;94202.69;4893349;29;20471;-79
2021/07/19 07:05:08;;;;;;;12.63;11.63;;;;;;;29.96;53.86;94203.31;4883753;29;20564;-80
2021/07/19 07:07:35;;;;;;;15.10;12.90;;;;;;;30.24;53.73;94202.06;4882577;29;20449;-80
2021/07/19 07:10:02;;;;;;;12.57;11.37;;;;;;;30.36;53.77;94199.91;4882533;29;20473;-82
2021/07/19 07:12:29;;;;;;;17.70;11.30;;;;;;;30.57;52.27;94200.72;4891411;29;20481;-82
2021/07/19 07:14:56;;;;;;;13.83;12.27;;;;;;;30.51;52.25;94204.50;4890837;29;20464;-83
2021/07/19 07:17:25;;;;;;;14.67;13.13;;;;;;;30.19;53.09;94202.84;4892207;29;20520;-81
2021/07/19 07:19:53;;;;;;;15.53;12.80;;;;;;;30.57;53.24;94197.19;4883337;29;20461;-81
2021/07/19 07:22:20;;;;;;;12.10;11.00;;;;;;;30.80;53.45;94199.38;4886849;29;20523;-81
2021/07/19 07:24:48;;;;;;;14.17;11.83;;;;;;;31.00;53.37;94195.84;4901049;29;20524;-82
2021/07/19 07:27:17;;;;;;;13.80;12.50;;;;;;;30.96;51.37;94192.06;4899742;29;20449;-82
2021/07/19 07:29:44;;;;;;;18.77;12.63;;;;;;;31.11;50.81;94195.53;4897066;29;20456;-81
2021/07/19 07:32:11;;;;;;;15.37;13.67;;;;;;;30.95;56.01;94193.16;4900814;29;20491;-84
2021/07/19 07:34:41;;;;;;;14.80;12.63;;;;;;;31.03;51.71;94195.28;4899805;29;20529;-80
2021/07/19 07:53:58;;;;;;;10.90;9.20;;;;;;;31.13;49.10;94184.41;4899292;29;20444;-83
2021/07/19 07:56:25;;;;;;;14.43;9.87;;;;;;;30.12;49.52;94177.16;4899554;29;20838;-82
2021/07/19 07:58:52;;;;;;;31.33;22.10;;;;;;;30.08;50.99;94176.88;4900112;29;20453;-84
2021/07/19 08:01:19;;;;;;;62.03;40.40;;;;;;;29.82;53.04;94184.09;4899859;29;20523;-87
2021/07/19 08:03:47;;;;;;;14.63;13.10;;;;;;;29.56;53.07;94175.09;4900466;29;20540;-88
2021/07/19 08:06:14;;;;;;;14.10;9.93;;;;;;;29.95;53.06;94173.81;4890942;29;20587;-87
2021/07/19 08:08:41;;;;;;;11.20;10.30;;;;;;;30.40;51.83;94171.22;4851299;29;20883;-85
2021/07/19 08:11:09;;;;;;;14.60;11.33;;;;;;;30.61;51.71;94180.16;4882520;29;20529;-85
2021/07/19 08:13:36;;;;;;;11.73;10.63;;;;;;;30.26;53.01;94163.88;4882158;29;20644;-85
2021/07/19 08:16:03;;;;;;;16.77;11.83;;;;;;;30.21;55.61;94168.22;4899139;29;20546;-77
2021/07/19 08:18:31;;;;;;;20.00;10.87;;;;;;;30.04;50.38;94173.06;4851119;29;20524;-78
2021/07/19 08:20:59;;;;;;;11.27;10.07;;;;;;;29.58;53.58;94172.94;4890697;29;20516;-77
2021/07/19 08:23:26;;;;;;;11.70;10.50;;;;;;;29.80;53.69;94171.91;4855358;29;20467;-78
2021/07/19 08:25:53;;;;;;;11.73;10.73;;;;;;;30.06;52.33;94164.66;4864944;29;20544;-78
2021/07/19 08:28:21;;;;;;;13.97;10.30;;;;;;;29.98;53.29;94165.97;4899578;29;20447;-78
2021/07/19 08:30:48;;;;;;;11.23;10.13;;;;;;;29.98;52.09;94162.47;4889258;29;20957;-77
2021/07/19 08:33:15;;;;;;;11.07;9.23;;;;;;;30.03;51.82;94163.31;4862720;29;20494;-77
2021/07/19 08:39:05;;;;;;;11.97;10.40;;;;;;;29.19;53.03;94167.03;4879683;29;20461;-77
2021/07/19 08:41:32;;;;;;;11.63;10.37;;;;;;;29.18;53.05;94170.00;4891128;29;20464;-78
2021/07/19 08:44:05;;;;;;;15.43;10.50;;;;;;;29.34;53.22;94166.31;4881070;29;20454;-77
2021/07/19 08:46:32;;;;;;;11.67;10.03;;;;;;;29.36;52.33;94160.63;4837905;29;20539;-78
2021/07/19 08:49:00;;;;;;;11.17;10.10;;;;;;;29.39;53.31;94166.31;4898366;29;20448;-77
2021/07/19 08:51:27;;;;;;;18.10;10.77;;;;;;;29.28;53.20;94165.47;4897489;29;20444;-78
2021/07/19 08:53:58;;;;;;;14.47;11.40;;;;;;;29.38;52.82;94164.69;4889305;29;20488;-77
2021/07/19 08:56:25;;;;;;;14.00;10.43;;;;;;;29.55;53.28;94165.34;4891851;29;20453;-77
2021/07/19 08:58:52;;;;;;;13.50;11.23;;;;;;;29.68;53.64;94169.44;4887081;29;20528;-78
2021/07/19 09:01:40;;;;;;;14.23;11.20;;;;;;;29.68;53.49;94163.22;4888467;29;20552;-77
2021/07/19 09:04:07;;;;;;;17.70;12.17;;;;;;;29.72;52.92;94164.31;4890494;29;20536;-77
2021/07/19 09:06:34;;;;;;;20.70;14.63;;;;;;;29.56;55.06;94158.88;4896096;29;20953;-76
2021/07/19 09:09:02;;;;;;;37.60;16.80;;;;;;;29.60;53.17;94162.66;4847784;29;20456;-81
2021/07/19 09:11:30;;;;;;;13.60;12.30;;;;;;;29.48;54.78;94156.66;4883588;29;20805;-81
2021/07/19 09:13:59;;;;;;;16.63;12.93;;;;;;;29.18;54.36;94161.91;4890575;29;20565;-81
2021/07/19 09:16:26;;;;;;;18.83;13.27;;;;;;;29.36;55.67;94155.22;4891069;29;20536;-80
2021/07/19 09:19:10;;;;;;;15.40;12.53;;;;;;;29.10;55.87;94157.00;4882647;29;20445;-80
2021/07/19 09:21:39;;;;;;;14.30;12.80;;;;;;;29.04;56.77;94152.66;4890007;29;20528;-79
2021/07/19 09:24:07;;;;;;;13.37;12.17;;;;;;;29.09;56.88;94149.97;4890854;29;20548;-78
2021/07/19 09:26:35;;;;;;;26.20;15.20;;;;;;;29.24;56.41;94144.66;4889051;29;20927;-78
2021/07/19 09:29:05;;;;;;;24.73;15.90;;;;;;;29.26;55.53;94147.91;4891558;29;20540;-89
2021/07/19 09:31:36;;;;;;;15.23;13.83;;;;;;;28.93;56.87;94149.91;4892549;29;20544;-91
2021/07/19 09:34:05;;;;;;;16.90;15.20;;;;;;;28.65;57.45;94142.16;4901850;29;20530;-89
2021/07/19 09:36:33;;;;;;;14.53;13.23;;;;;;;28.88;56.86;94141.75;4903776;29;20612;-90
2021/07/19 09:39:06;;;;;;;14.90;13.50;;;;;;;28.85;56.89;94144.16;4903062;29;20532;-89
2021/07/19 09:41:33;;;;;;;16.13;13.40;;;;;;;29.12;59.07;94135.94;4903401;29;20492;-90
2021/07/19 09:44:00;;;;;;;16.13;13.13;;;;;;;29.44;56.70;94144.75;4903713;29;20489;-90
2021/07/19 09:46:36;;;;;;;14.80;12.67;;;;;;;29.64;54.47;94145.91;4904344;29;20461;-90
2021/07/19 09:49:04;;;;;;;14.70;13.10;;;;;;;29.38;54.67;94144.97;4901741;29;20559;-83
2021/07/19 09:51:36;;;;;;;18.97;13.30;;;;;;;29.39;54.26;94149.28;4899249;29;20523;-83
2021/07/19 09:54:11;;;;;;;17.30;13.80;;;;;;;29.04;55.66;94141.84;4899490;29;20575;-83
2021/07/19 09:56:39;;;;;;;17.00;15.30;;;;;;;28.92;56.61;94148.28;4899058;29;20453;-83
2021/07/19 09:59:07;;;;;;;17.70;14.00;;;;;;;29.05;55.80;94146.19;4899121;29;20461;-83
2021/07/19 10:01:36;;;;;;;16.63;13.43;;;;;;;29.23;55.77;94143.03;4866122;29;20456;-83
2021/07/19 10:04:05;;;;;;;26.60;13.67;;;;;;;29.48;55.45;94142.31;4900730;29;20453;-85
2021/07/19 10:06:33;;;;;;;17.17;13.20;;;;;;;29.32;54.80;94144.13;4918830;29;20515;-85
2021/07/19 10:09:01;;;;;;;17.70;14.90;;;;;;;29.25;55.68;94140.88;4906868;29;20540;-84
2021/07/19 10:11:33;;;;;;;15.13;13.63;;;;;;;29.43;54.83;94145.78;4902102;29;20534;-84
2021/07/19 10:14:01;;;;;;;17.73;13.50;;;;;;;29.57;53.72;94146.97;4914608;29;20492;-84
2021/07/19 10:16:30;;;;;;;15.63;14.13;;;;;;;29.70;54.71;94144.81;4916672;29;20491;-84
2021/07/19 10:18:58;;;;;;;17.73;13.77;;;;;;;29.57;53.89;94138.03;4916477;29;20429;-83
2021/07/19 10:21:29;;;;;;;21.13;14.87;;;;;;;29.58;54.44;94142.38;4918490;29;20487;-84
2021/07/19 10:23:59;;;;;;;16.73;14.80;;;;;;;29.17;56.12;94136.75;4916862;29;20460;-83
2021/07/19 10:26:27;;;;;;;16.40;14.00;;;;;;;29.02;54.42;94133.19;4918129;29;20511;-83
2021/07/19 10:28:54;;;;;;;16.07;14.20;;;;;;;29.24;54.53;94131.16;4918486;29;20476;-82
2021/07/19 10:31:22;;;;;;;16.90;14.83;;;;;;;29.50;54.32;94127.47;4915501;29;20460;-83
2021/07/19 10:33:50;;;;;;;23.53;13.53;;;;;;;29.77;53.02;94124.53;4918212;29;20471;-83
2021/07/19 10:36:24;;;;;;;19.23;12.93;;;;;;;29.94;52.29;94129.72;4917195;29;20460;-83
2021/07/19 10:38:54;;;;;;;16.17;13.30;;;;;;;29.92;52.64;94123.78;4920228;29;20902;-83
2021/07/19 10:41:24;;;;;;;15.97;14.37;;;;;;;29.96;53.68;94122.16;4920769;29;20448;-83
2021/07/19 10:44:03;;;;;;;15.80;12.70;;;;;;;30.02;52.92;94118.34;4901344;29;20492;-84
2021/07/19 10:46:30;;;;;;;21.33;14.73;;;;;;;30.14;52.87;94118.97;4919868;29;20487;-83
2021/07/19 10:49:09;;;;;;;15.60;13.80;;;;;;;30.03;51.07;94114.59;4920204;29;20488;-84
2021/07/19 10:51:40;;;;;;;25.57;13.73;;;;;;;29.67;53.24;94111.00;4920671;29;20437;-83
2021/07/19 10:54:18;;;;;;;19.30;14.77;;;;;;;29.64;53.83;94102.63;4920276;29;21161;-83
2021/07/19 10:56:51;;;;;;;15.17;13.60;;;;;;;29.87;53.08;94100.22;4919665;29;20457;-82
2021/07/19 10:59:28;;;;;;;16.50;14.87;;;;;;;29.69;52.15;94105.34;4921538;29;20467;-81
2021/07/19 11:01:57;;;;;;;16.83;14.47;;;;;;;29.65;52.37;94088.03;4922979;29;20437;-82
2021/07/19 11:04:24;;;;;;;16.40;14.80;;;;;;;29.64;52.12;94081.81;4921419;29;20480;-84
2021/07/19 11:06:57;;;;;;;16.40;14.83;;;;;;;29.81;53.36;94089.69;4889275;29;20473;-83
2021/07/19 11:09:38;;;;;;;19.17;14.00;;;;;;;30.07;52.07;94085.09;4875198;29;20449;-82
2021/07/19 11:12:12;;;;;;;15.63;14.20;;;;;;;29.79;50.80;94078.31;4921185;29;20468;-83
2021/07/19 11:14:45;;;;;;;17.60;15.73;;;;;;;29.82;53.22;94083.19;4920783;29;20480;-84
2021/07/19 11:17:13;;;;;;;23.50;15.43;;;;;;;29.86;52.67;94076.97;4920041;29;20456;-83
2021/07/19 11:19:41;;;;;;;19.73;15.20;;;;;;;29.85;52.90;94077.25;4919240;29;20464;-83
2021/07/19 11:22:10;;;;;;;21.23;14.70;;;;;;;29.79;51.98;94076.44;4920971;29;20457;-84
2021/07/19 11:24:42;;;;;;;19.90;15.40;;;;;;;30.14;51.85;94069.44;4842103;29;20461;-83
2021/07/19 11:27:12;;;;;;;17.33;15.50;;;;;;;30.44;51.20;94072.09;4921175;29;20866;-83
2021/07/19 11:29:41;;;;;;;15.97;14.37;;;;;;;30.47;50.70;94068.03;4919477;29;20441;-83
2021/07/19 11:32:13;;;;;;;15.77;14.23;;;;;;;30.34;49.05;94068.59;4917066;29;20487;-82
2021/07/19 11:34:41;;;;;;;18.70;16.93;;;;;;;30.55;48.82;94064.75;4918305;29;20515;-82
2021/07/19 11:37:08;;;;;;;16.47;14.80;;;;;;;30.73;47.31;94060.69;4886955;29;20453;-84
2021/07/19 11:39:51;;;;;;;20.57;13.80;;;;;;;30.71;48.66;94055.56;4919769;29;20960;-83
2021/07/19 11:42:34;;;;;;;21.10;15.47;;;;;;;30.94;48.13;94059.56;4915742;29;20476;-84
2021/07/19 11:45:06;;;;;;;20.53;14.27;;;;;;;30.81;48.23;94057.41;4916327;29;20453;-83
2021/07/19 11:47:40;;;;;;;17.87;14.93;;;;;;;30.73;48.15;94055.28;4913748;29;20453;-85
2021/07/19 11:50:08;;;;;;;19.73;15.33;;;;;;;30.51;49.44;94058.28;4907395;29;20966;-85
2021/07/19 11:52:35;;;;;;;17.33;14.90;;;;;;;30.63;49.16;94042.56;4902111;29;20944;-85
2021/07/19 11:55:02;;;;;;;15.23;13.50;;;;;;;30.88;49.40;94043.56;4900986;29;20914;-85
2021/07/19 11:57:42;;;;;;;16.23;14.73;;;;;;;30.99;48.69;94048.69;4901353;29;20527;-85
2021/07/19 12:00:11;;;;;;;22.13;14.70;;;;;;;30.99;49.15;94047.88;4900892;29;20770;-84
2021/07/19 12:02:38;;;;;;;16.33;14.70;;;;;;;31.12;47.99;94034.53;4901655;29;20505;-85
2021/07/19 12:05:05;;;;;;;14.97;13.47;;;;;;;31.17;47.99;94035.59;4900090;29;21001;-84
2021/07/19 12:07:32;;;;;;;20.60;14.73;;;;;;;31.11;48.21;94030.19;4852093;29;20453;-84
2021/07/19 12:10:01;;;;;;;25.33;15.83;;;;;;;31.03;48.52;94032.69;4900095;29;20540;-85
2021/07/19 12:12:28;;;;;;;18.30;14.07;;;;;;;30.71;48.97;94020.34;4900315;29;20448;-84
2021/07/19 12:15:02;;;;;;;17.57;15.17;;;;;;;30.67;49.62;94013.06;4852207;29;20473;-84